Pagrindinis puslapis
METAR-TAF:

METAR-TAF

Oro uostai :

Kapris, Italija

platuma: 40-33N, ilguma: 014-12E, Aukštis: 160 m

Dabartinis oras

Ataskaita buvo paskelbta 36 minutes, ne 03:55 UTC
Vėjas 2 kt iš Vakarų/Pietvakarių
Temperatūra 11°C
Drėgmė 87%
Slėgis 1024 hPa
Matomumas 10 km arba daugiau
Išsisklaidę debesys ne aukštis 2000 ft

METAR: LIQC 180355Z 25002KT 9999 SCT020 11/09 Q1024 RMK SCT QUK / QUL / VIS MAR 10 KM VIS MIN 9999

Laikas: 05:31 (04:31 UTC)


TAF: trūkstamas

Orai ataskaitas ir orų prognozės (METAR, TAF).

turimą stotys yra geltonos ir raudonos taškus žemėlapyje.

Perkelti pele per norėdami pamatyti stoties vardą.

Tada spustelėkite, norėdami matyti oro stebėjimo ir prognozės.

Norėdami pakeisti žemėlapį: spustelėkite ant žalios mygtukų su juodo kryžiaus žemyn,; žalią mygtuką su brūkšneliu, jei norite nutolinti; arba žalių rodyklių gretimoms žemėlapius.


METAR-TAF: